Mountain Springs, Nevada
Current Conditions -  °F | °C
As of 4:56 AM on Thursday 30 Oct 2014 (Local Time) from KHND Reporting Station
Clear Clear  
Wind Chill: 55°   Ceiling: Unl
Heat Index: 55°   Visibility: 10mi
Dew Point: 22°   Wind: 9mph
Humidity: 28%   Direction: 150°SSE
Pressure: 30.1"   Gusts: NA
Location:  35.8437°N, 115.134°W
Report Text: KHND 301156Z AUTO 15008KT 10SM CLR 13/M06 A3010 RMK AO2 58002 T01271055 10161 20122 SLP177
Loading
Personal Weather Stations






























Interactive Weather Map
Tropical Storm Tracking
New forecast layout! Learn more

10-Day Weather Forecast

Advertisements
Track Severe Weather on mobile